Izumo Princess — SXMB — position and weather

sailwx.info

Track history (hours):
 
Tides and Currents Weather Stations Pressure Air Temp Water Temp Dewpoint Dewpoint Depression Visibility Wind Speed Wind Dir Waves Ship Positions

Izumo Princess

Last reported at 2015-May-27 19:17 UTC. Time now 2015-May-30 04:25 UTC.
Position N 35°48' E 032°52'.

Length 229 m; draft 8.2 m.

Type: Tanker. MMSI: 240611000.

Date/timePositionNaut miles runAvg speedWind from/ knotsBaromVisibWave heightAir tempDewpointWater temp
2015-May-27 19:17N 35°48' E 032°52'167 9.9
2015-May-27 02:33N 35°19' E 029°31'9 8.6
2015-May-27 01:29N 35°18' E 029°19'9 8.7
2015-May-27 00:27N 35°16' E 029°09'26 8.9
2015-May-26 21:33N 35°11' E 028°38'10 9.6
2015-May-26 20:29N 35°10' E 028°25'29 9.6
2015-May-26 17:29N 35°04' E 027°51'9 9.6
2015-May-26 16:33N 35°02' E 027°40'1010.0
2015-May-26 15:30N 35°01' E 027°27'1410.2
2015-May-26 14:09N 34°59' E 027°11'610.1
2015-May-26 13:34N 34°58' E 027°03'1010.2
2015-May-26 12:33N 34°56' E 026°51'1510.0
2015-May-26 11:04N 34°53' E 026°33'  
2015-May-22 01:11N 35°11' E 023°29'20 9.7
2015-May-21 23:10N 35°25' E 023°12'17 9.6
2015-May-21 21:24N 35°36' E 022°57'19 9.8
2015-May-21 19:32N 35°49' E 022°40'1010.0
2015-May-21 18:32N 35°55' E 022°31'13910.6
2015-May-21 05:23N 37°39' E 020°34'18 9.9
2015-May-21 03:33N 37°54' E 020°22'10 9.5
2015-May-21 02:34N 38°02' E 020°16'9 9.4
2015-May-21 01:34N 38°11' E 020°13'10 9.5
2015-May-21 00:34N 38°20' E 020°08'10 9.8
2015-May-20 23:33N 38°29' E 020°02'10 9.8
2015-May-20 22:34N 38°38' E 019°57'10 9.7
2015-May-20 21:30N 38°47' E 019°52'10 9.9
2015-May-20 20:27N 38°57' E 019°49'9 9.8
2015-May-20 19:33N 39°05' E 019°45'10 9.9
2015-May-20 18:34N 39°14' E 019°39'10 9.6
2015-May-20 17:33N 39°23' E 019°34'9 9.5
2015-May-20 16:33N 39°31' E 019°29'10 9.6
2015-May-20 15:33N 39°40' E 019°23'10 9.8
2015-May-20 14:34N 39°48' E 019°17'10 9.5
2015-May-20 13:33N 39°57' E 019°12'9 9.4
2015-May-20 12:33N 40°06' E 019°06'9 9.5
2015-May-20 11:34N 40°14' E 018°60'10 9.8
2015-May-20 10:34N 40°22' E 018°53'10 9.7
2015-May-20 09:33N 40°31' E 018°47'  
Track history (hours):
 
Tides and Currents Weather Stations Pressure Air Temp Water Temp Dewpoint Dewpoint Depression Visibility Wind Speed Wind Dir Waves Ship Positions

Izumo Princess

Last reported at 2015-May-27 19:17 UTC. Time now 2015-May-30 04:25 UTC.
Position N 35°48' E 032°52'.

Length 229 m; draft 8.2 m.

Type: Tanker. MMSI: 240611000.

Date/timePositionNaut miles runAvg speedWind from/ knotsBaromVisibWave heightAir tempDewpointWater temp
2015-May-27 19:17N 35°48' E 032°52'167 9.9
2015-May-27 02:33N 35°19' E 029°31'9 8.6
2015-May-27 01:29N 35°18' E 029°19'9 8.7
2015-May-27 00:27N 35°16' E 029°09'26 8.9
2015-May-26 21:33N 35°11' E 028°38'10 9.6
2015-May-26 20:29N 35°10' E 028°25'29 9.6
2015-May-26 17:29N 35°04' E 027°51'9 9.6
2015-May-26 16:33N 35°02' E 027°40'1010.0
2015-May-26 15:30N 35°01' E 027°27'1410.2
2015-May-26 14:09N 34°59' E 027°11'610.1
2015-May-26 13:34N 34°58' E 027°03'1010.2
2015-May-26 12:33N 34°56' E 026°51'1510.0
2015-May-26 11:04N 34°53' E 026°33'  
2015-May-22 01:11N 35°11' E 023°29'20 9.7
2015-May-21 23:10N 35°25' E 023°12'17 9.6
2015-May-21 21:24N 35°36' E 022°57'19 9.8
2015-May-21 19:32N 35°49' E 022°40'1010.0
2015-May-21 18:32N 35°55' E 022°31'13910.6
2015-May-21 05:23N 37°39' E 020°34'18 9.9
2015-May-21 03:33N 37°54' E 020°22'10 9.5
2015-May-21 02:34N 38°02' E 020°16'9 9.4
2015-May-21 01:34N 38°11' E 020°13'10 9.5
2015-May-21 00:34N 38°20' E 020°08'10 9.8
2015-May-20 23:33N 38°29' E 020°02'10 9.8
2015-May-20 22:34N 38°38' E 019°57'10 9.7
2015-May-20 21:30N 38°47' E 019°52'10 9.9
2015-May-20 20:27N 38°57' E 019°49'9 9.8
2015-May-20 19:33N 39°05' E 019°45'10 9.9
2015-May-20 18:34N 39°14' E 019°39'10 9.6
2015-May-20 17:33N 39°23' E 019°34'9 9.5
2015-May-20 16:33N 39°31' E 019°29'10 9.6
2015-May-20 15:33N 39°40' E 019°23'10 9.8
2015-May-20 14:34N 39°48' E 019°17'10 9.5
2015-May-20 13:33N 39°57' E 019°12'9 9.4
2015-May-20 12:33N 40°06' E 019°06'9 9.5
2015-May-20 11:34N 40°14' E 018°60'10 9.8
2015-May-20 10:34N 40°22' E 018°53'10 9.7
2015-May-20 09:33N 40°31' E 018°47'  

Dump ship's entire track history